Time,TemperatureF,DewpointF,PressureIn,WindDirection,WindDirectionDegrees,WindSpeedMPH,WindSpeedGustMPH,Humidity,HourlyPrecipIn,Conditions,Clouds,dailyrainin,SoftwareType,DateUTC
2017-02-25 00:00:00,65.7,62.3,29.91,NNE,22,0.0,0.0,89,0.00,,SCT300,0.00,VWS V15.00,2017-02-25 06:00:00,
2017-02-25 00:06:00,65.5,61.8,29.91,NNE,22,0.0,0.0,88,0.00,,SCT300,0.00,VWS V15.00,2017-02-25 06:06:00,
2017-02-25 00:11:00,65.3,61.7,29.91,NNE,22,0.0,0.0,88,0.00,,SCT300,0.00,VWS V15.00,2017-02-25 06:11:00,
2017-02-25 00:18:00,65.3,61.7,29.91,NNE,22,0.0,0.0,88,0.00,,SCT300,0.00,VWS V15.00,2017-02-25 06:18:00,
2017-02-25 00:23:00,65.1,61.5,29.94,NNE,22,0.0,0.0,88,0.00,,SCT300,0.00,VWS V15.00,2017-02-25 06:23:00,
2017-02-25 00:28:00,64.9,61.3,29.94,NNE,22,0.0,0.0,88,0.00,,SCT300,0.00,VWS V15.00,2017-02-25 06:28:00,
2017-02-25 00:33:00,64.9,61.3,29.94,NNE,22,0.0,0.0,88,0.00,,SCT300,0.00,VWS V15.00,2017-02-25 06:33:00,
2017-02-25 00:38:00,64.8,61.1,29.91,NNE,22,0.0,0.0,88,0.00,,SCT300,0.00,VWS V15.00,2017-02-25 06:38:00,
2017-02-25 00:43:00,64.8,61.1,29.91,NNE,22,0.0,0.0,88,0.00,,SCT300,0.00,VWS V15.00,2017-02-25 06:43:00,
2017-02-25 00:48:00,64.6,61.0,29.91,NNE,22,0.0,0.0,88,0.00,,SCT300,0.00,VWS V15.00,2017-02-25 06:48:00,
2017-02-25 00:53:00,64.6,61.0,29.91,NNE,22,0.0,0.0,88,0.00,,SCT300,0.00,VWS V15.00,2017-02-25 06:53:00,
2017-02-25 00:58:00,64.4,60.8,29.91,NNE,22,0.0,0.0,88,0.00,,SCT300,0.00,VWS V15.00,2017-02-25 06:58:00,
2017-02-25 01:03:00,64.4,60.8,29.94,NNE,22,0.0,0.0,88,0.00,,SCT300,0.00,VWS V15.00,2017-02-25 07:03:00,
2017-02-25 01:08:00,64.2,60.6,29.94,NNE,22,0.0,0.0,88,0.00,,SCT300,0.00,VWS V15.00,2017-02-25 07:08:00,
2017-02-25 01:13:00,64.2,60.6,29.94,NNE,22,0.0,0.0,88,0.00,,SCT300,0.00,VWS V15.00,2017-02-25 07:13:00,
2017-02-25 01:19:00,64.2,60.6,29.91,NNE,22,0.0,0.0,88,0.00,,SCT300,0.00,VWS V15.00,2017-02-25 07:19:00,
2017-02-25 01:24:00,64.0,60.4,29.91,NNE,22,0.0,0.0,88,0.00,,SCT300,0.00,VWS V15.00,2017-02-25 07:24:00,
2017-02-25 01:29:00,64.0,60.4,29.91,NNE,22,0.0,0.0,88,0.00,,SCT300,0.00,VWS V15.00,2017-02-25 07:29:00,
2017-02-25 01:34:00,63.9,60.2,29.91,NNE,22,0.0,0.0,88,0.00,,SCT300,0.00,VWS V15.00,2017-02-25 07:34:00,
2017-02-25 01:39:00,63.9,60.2,29.91,NNE,22,0.0,0.0,88,0.00,,SCT300,0.00,VWS V15.00,2017-02-25 07:39:00,
2017-02-25 01:44:00,63.7,60.1,29.91,NNE,22,0.0,0.0,88,0.00,,SCT300,0.00,VWS V15.00,2017-02-25 07:44:00,
2017-02-25 01:49:00,63.5,59.9,29.88,NNE,22,0.0,0.0,88,0.00,,SCT300,0.00,VWS V15.00,2017-02-25 07:49:00,